createdAt,value
2022-08-27T00:02:17.088Z,4.97
2022-08-27T00:05:05.009Z,5.50
2022-08-27T00:07:52.262Z,5.20
2022-08-27T00:10:41.425Z,5.40
2022-08-27T00:13:28.721Z,4.95
2022-08-27T00:16:17.653Z,5.20
2022-08-27T00:19:05.077Z,4.80
2022-08-27T00:21:52.342Z,4.95
2022-08-27T00:24:48.577Z,4.38
2022-08-27T00:27:36.716Z,4.43
2022-08-27T00:30:24.099Z,4.30
2022-08-27T00:33:11.544Z,4.10
2022-08-27T00:35:59.374Z,4.50
2022-08-27T00:38:46.609Z,4.38
2022-08-27T00:41:34.526Z,4.20
2022-08-27T00:44:21.782Z,3.97
2022-08-27T00:47:17.005Z,3.97
2022-08-27T00:50:08.852Z,3.33
2022-08-27T00:53:01.906Z,4.35
2022-08-27T00:55:55.183Z,7.20
2022-08-27T00:58:46.351Z,7.97
2022-08-27T01:01:35.898Z,14.13
2022-08-27T01:04:23.428Z,15.88
2022-08-27T01:07:11.109Z,15.18
2022-08-27T01:10:01.014Z,16.05
2022-08-27T01:12:53.416Z,21.13
2022-08-27T01:15:41.921Z,18.70
2022-08-27T01:18:33.441Z,21.75
2022-08-27T01:21:34.381Z,22.42
2022-08-27T01:24:35.728Z,21.20
2022-08-27T01:27:26.679Z,19.10
2022-08-27T01:30:18.097Z,18.92
2022-08-27T01:33:17.090Z,16.02
2022-08-27T01:36:08.073Z,15.57
2022-08-27T01:38:55.841Z,14.20
2022-08-27T01:44:42.750Z,16.80
2022-08-27T01:47:30.692Z,20.70
2022-08-27T01:50:25.641Z,23.25
2022-08-27T01:53:16.363Z,23.17
2022-08-27T01:56:05.461Z,27.73
2022-08-27T01:58:52.732Z,27.90
2022-08-27T02:01:40.031Z,28.88
2022-08-27T02:04:27.445Z,32.45
2022-08-27T02:07:14.700Z,32.58
2022-08-27T02:10:02.063Z,38.15
2022-08-27T02:12:49.618Z,39.10
2022-08-27T02:15:37.938Z,36.80
2022-08-27T02:18:25.235Z,35.50
2022-08-27T02:21:12.820Z,33.85
2022-08-27T02:24:00.144Z,34.10
2022-08-27T02:26:47.421Z,33.53
2022-08-27T02:29:34.889Z,32.53
2022-08-27T02:32:26.983Z,33.45
2022-08-27T02:35:22.021Z,34.15
2022-08-27T02:40:57.114Z,34.70
2022-08-27T02:43:45.564Z,34.03
2022-08-27T02:46:33.321Z,34.10
2022-08-27T02:49:20.721Z,32.90
2022-08-27T02:52:08.179Z,34.00
2022-08-27T02:54:56.464Z,31.70
2022-08-27T02:57:43.940Z,34.00
2022-08-27T03:00:31.266Z,34.75
2022-08-27T03:03:18.616Z,33.78
2022-08-27T03:06:05.926Z,35.10
2022-08-27T03:08:53.662Z,32.03
2022-08-27T03:11:41.988Z,33.13
2022-08-27T03:14:29.484Z,30.92
2022-08-27T03:17:35.391Z,32.45
2022-08-27T03:20:24.219Z,31.77
2022-08-27T03:23:12.567Z,30.52
2022-08-27T03:26:02.617Z,31.75
2022-08-27T03:28:49.959Z,31.40
2022-08-27T03:31:37.670Z,30.20
2022-08-27T03:34:24.962Z,29.98
2022-08-27T03:37:12.273Z,29.30
2022-08-27T03:39:59.571Z,30.30
2022-08-27T03:42:46.854Z,28.98
2022-08-27T03:46:00.404Z,30.00
2022-08-27T03:48:41.468Z,30.02
2022-08-27T03:51:28.706Z,28.73
2022-08-27T03:54:16.128Z,28.45
2022-08-27T03:57:04.245Z,28.55
2022-08-27T03:59:53.038Z,28.52
2022-08-27T04:02:42.905Z,28.00
2022-08-27T04:05:30.220Z,25.58
2022-08-27T04:08:17.493Z,23.58
2022-08-27T04:11:06.745Z,23.77
2022-08-27T04:13:53.998Z,22.98
2022-08-27T04:16:41.516Z,21.52
2022-08-27T04:19:32.212Z,20.33
2022-08-27T04:22:20.874Z,19.15
2022-08-27T04:25:10.459Z,19.13
2022-08-27T04:27:59.192Z,19.48
2022-08-27T04:30:47.142Z,17.95
2022-08-27T04:33:34.604Z,18.58
2022-08-27T04:36:21.927Z,18.17
2022-08-27T04:39:09.178Z,19.40
2022-08-27T04:41:59.256Z,26.33
2022-08-27T04:44:47.162Z,21.70
2022-08-27T04:47:35.127Z,22.35
2022-08-27T04:50:22.362Z,20.45
2022-08-27T04:53:13.544Z,21.63
2022-08-27T04:56:00.768Z,20.15
2022-08-27T04:58:49.262Z,20.58
2022-08-27T05:01:37.869Z,19.42
2022-08-27T05:04:26.696Z,18.75
2022-08-27T05:07:14.069Z,20.05
2022-08-27T05:10:01.331Z,19.00
2022-08-27T05:12:50.107Z,19.35
2022-08-27T05:15:38.389Z,21.55
2022-08-27T05:18:25.989Z,20.50
2022-08-27T05:21:33.701Z,21.42
2022-08-27T05:24:21.958Z,20.63
2022-08-27T05:27:09.888Z,19.95
2022-08-27T05:30:00.256Z,23.27
2022-08-27T05:32:47.577Z,20.50
2022-08-27T05:35:42.591Z,17.92
2022-08-27T05:38:30.637Z,16.73
2022-08-27T05:41:21.201Z,14.48
2022-08-27T05:44:36.726Z,12.35
2022-08-27T05:47:17.232Z,13.13
2022-08-27T05:50:05.794Z,12.40
2022-08-27T05:52:53.686Z,12.10
2022-08-27T05:55:45.278Z,11.57
2022-08-27T05:58:51.141Z,11.68
2022-08-27T06:01:45.637Z,11.98
2022-08-27T06:04:33.052Z,12.25
2022-08-27T06:07:20.545Z,11.93
2022-08-27T06:10:08.729Z,10.90
2022-08-27T06:12:57.150Z,11.02
2022-08-27T06:15:44.562Z,11.20
2022-08-27T06:18:36.509Z,10.50
2022-08-27T06:21:24.956Z,10.40
2022-08-27T06:24:13.338Z,10.55
2022-08-27T06:27:00.597Z,11.15
2022-08-27T06:29:47.893Z,11.40
2022-08-27T06:32:35.133Z,11.43
2022-08-27T06:35:22.425Z,11.55
2022-08-27T06:38:09.795Z,11.68
2022-08-27T06:40:58.150Z,12.15
2022-08-27T06:43:45.794Z,12.48
2022-08-27T06:46:33.160Z,10.80
2022-08-27T06:49:20.460Z,12.63
2022-08-27T06:52:07.887Z,12.73
2022-08-27T06:54:56.627Z,12.38
2022-08-27T06:57:43.878Z,12.35
2022-08-27T07:00:31.156Z,12.70
2022-08-27T07:03:18.493Z,11.05
2022-08-27T07:06:06.456Z,9.68
2022-08-27T07:08:54.109Z,9.77
2022-08-27T07:11:41.405Z,10.20
2022-08-27T07:14:32.972Z,8.52
2022-08-27T07:17:24.311Z,9.27
2022-08-27T07:20:13.343Z,9.18
2022-08-27T07:23:00.606Z,9.18
2022-08-27T07:25:48.312Z,9.55
2022-08-27T07:28:36.412Z,9.32
2022-08-27T07:31:24.265Z,9.00
2022-08-27T07:34:11.548Z,10.00
2022-08-27T07:36:58.831Z,11.90
2022-08-27T07:39:46.125Z,9.77
2022-08-27T07:42:51.981Z,10.05
2022-08-27T07:45:48.145Z,9.43
2022-08-27T07:48:36.482Z,9.45
2022-08-27T07:51:28.260Z,10.18
2022-08-27T07:54:16.383Z,9.85
2022-08-27T07:57:04.377Z,10.10
2022-08-27T07:59:53.136Z,9.50
2022-08-27T08:02:42.144Z,9.00
2022-08-27T08:05:36.780Z,9.73
2022-08-27T08:08:24.950Z,8.27
2022-08-27T08:11:16.639Z,8.00
2022-08-27T08:14:03.933Z,8.43
2022-08-27T08:19:19.820Z,8.75
2022-08-27T08:22:08.468Z,8.45
2022-08-27T08:24:55.868Z,8.77
2022-08-27T08:27:43.616Z,8.57
2022-08-27T08:30:33.154Z,8.32
2022-08-27T08:33:23.557Z,8.82
2022-08-27T08:36:13.573Z,7.95
2022-08-27T08:39:00.969Z,8.88
2022-08-27T08:41:55.400Z,8.38
2022-08-27T08:44:49.456Z,8.90
2022-08-27T08:47:45.605Z,8.90
2022-08-27T08:50:53.999Z,8.43
2022-08-27T08:53:47.578Z,9.18
2022-08-27T08:57:07.900Z,8.93
2022-08-27T09:00:09.473Z,9.40
2022-08-27T09:02:57.292Z,8.70
2022-08-27T09:05:54.630Z,10.60
2022-08-27T09:08:43.523Z,9.15
2022-08-27T09:11:44.372Z,9.38
2022-08-27T09:14:41.205Z,9.90
2022-08-27T09:17:34.646Z,14.20
2022-08-27T09:20:25.644Z,15.55
2022-08-27T09:23:16.272Z,16.35
2022-08-27T09:26:03.603Z,18.02
2022-08-27T09:29:18.475Z,18.05
2022-08-27T09:32:09.245Z,16.83
2022-08-27T09:35:01.496Z,17.88
2022-08-27T09:37:53.090Z,16.65
2022-08-27T09:40:48.864Z,16.60
2022-08-27T09:43:36.908Z,16.48
2022-08-27T09:46:26.953Z,16.40
2022-08-27T09:49:16.389Z,17.55
2022-08-27T09:52:04.289Z,16.88
2022-08-27T09:54:55.598Z,16.73
2022-08-27T09:57:43.005Z,15.55
2022-08-27T10:00:39.634Z,16.13
2022-08-27T10:03:31.365Z,14.88
2022-08-27T10:06:32.541Z,14.38
2022-08-27T10:09:32.993Z,12.93
2022-08-27T10:12:55.328Z,12.48
2022-08-27T10:15:57.441Z,12.20
2022-08-27T10:19:22.377Z,11.13
2022-08-27T10:23:07.108Z,9.82
2022-08-27T10:26:16.951Z,9.35
2022-08-27T10:29:19.578Z,10.05
2022-08-27T10:32:31.186Z,9.02
2022-08-27T10:35:32.131Z,9.50
2022-08-27T10:38:31.369Z,9.77
2022-08-27T10:41:35.243Z,9.52
2022-08-27T10:45:02.441Z,8.90
2022-08-27T10:48:10.959Z,8.23
2022-08-27T10:50:58.359Z,8.30
2022-08-27T10:53:59.788Z,8.60
2022-08-27T10:57:31.747Z,9.02
2022-08-27T11:00:23.130Z,8.57
2022-08-27T11:03:42.015Z,9.15
2022-08-27T11:06:54.369Z,7.63
2022-08-27T11:10:18.472Z,7.40
2022-08-27T11:13:14.658Z,6.32
2022-08-27T11:16:11.624Z,6.63
2022-08-27T11:19:05.903Z,5.93
2022-08-27T11:22:01.246Z,5.70
2022-08-27T11:25:10.013Z,5.50
2022-08-27T11:27:59.095Z,4.70
2022-08-27T11:31:04.204Z,4.72
2022-08-27T11:34:12.814Z,4.70
2022-08-27T11:37:37.857Z,5.40
2022-08-27T11:40:49.285Z,5.28
2022-08-27T11:43:37.530Z,5.82
2022-08-27T11:46:27.781Z,4.35
2022-08-27T11:49:29.761Z,5.10
2022-08-27T11:52:26.075Z,4.60
2022-08-27T11:55:19.371Z,5.00
2022-08-27T11:58:08.354Z,5.05
2022-08-27T12:00:55.951Z,4.90
2022-08-27T12:03:43.490Z,4.53
2022-08-27T12:06:41.762Z,5.13
2022-08-27T12:09:29.666Z,4.57
2022-08-27T12:12:49.146Z,5.78
2022-08-27T12:15:48.374Z,6.20
2022-08-27T12:18:42.612Z,5.93
2022-08-27T12:21:51.394Z,6.35
2022-08-27T12:24:58.676Z,6.68
2022-08-27T12:27:55.449Z,6.35
2022-08-27T12:30:50.415Z,5.95
2022-08-27T12:33:44.853Z,5.75
2022-08-27T12:36:34.802Z,6.85
2022-08-27T12:39:29.589Z,6.50
2022-08-27T12:42:19.802Z,6.47
2022-08-27T12:45:07.571Z,6.90
2022-08-27T12:47:55.662Z,7.20
2022-08-27T12:50:42.985Z,7.13
2022-08-27T12:53:32.880Z,6.25
2022-08-27T12:56:37.880Z,6.85
2022-08-27T12:59:43.137Z,5.20
2022-08-27T13:03:16.133Z,6.05
2022-08-27T13:06:26.998Z,5.28
2022-08-27T13:09:14.278Z,5.22
2022-08-27T13:12:05.493Z,5.30
2022-08-27T13:14:56.965Z,5.50
2022-08-27T13:17:46.512Z,5.10
2022-08-27T13:20:37.612Z,5.28
2022-08-27T13:23:27.154Z,5.88
2022-08-27T13:26:14.396Z,5.07
2022-08-27T13:29:03.912Z,4.85
2022-08-27T13:31:51.817Z,5.22
2022-08-27T13:34:40.932Z,5.15
2022-08-27T13:37:44.712Z,5.32
2022-08-27T13:40:35.194Z,6.30
2022-08-27T13:43:33.155Z,5.47
2022-08-27T13:46:24.115Z,6.07
2022-08-27T13:49:17.596Z,6.50
2022-08-27T13:52:36.967Z,7.47
2022-08-27T13:58:14.941Z,6.22
2022-08-27T14:01:14.209Z,6.25
2022-08-27T14:04:07.761Z,7.07
2022-08-27T14:06:55.212Z,7.18
2022-08-27T14:09:54.263Z,5.75
2022-08-27T14:12:42.299Z,5.75
2022-08-27T14:15:38.359Z,5.55
2022-08-27T14:18:54.970Z,5.85
2022-08-27T14:21:40.870Z,6.00
2022-08-27T14:24:31.182Z,5.35
2022-08-27T14:27:20.035Z,6.00
2022-08-27T14:30:09.585Z,6.28
2022-08-27T14:33:01.873Z,6.00
2022-08-27T14:35:49.236Z,5.78
2022-08-27T14:38:40.825Z,5.50
2022-08-27T14:41:28.333Z,5.40
2022-08-27T14:44:15.569Z,4.90
2022-08-27T14:47:09.682Z,5.75
2022-08-27T14:49:57.770Z,5.10
2022-08-27T14:52:45.093Z,4.15
2022-08-27T14:55:32.374Z,4.70
2022-08-27T14:58:20.298Z,3.90
2022-08-27T15:01:08.071Z,4.57
2022-08-27T15:03:57.344Z,3.97
2022-08-27T15:06:44.801Z,3.55
2022-08-27T15:09:32.281Z,4.60
2022-08-27T15:12:26.410Z,3.88
2022-08-27T15:15:14.933Z,3.80
2022-08-27T15:18:02.177Z,4.00
2022-08-27T15:20:49.933Z,3.83
2022-08-27T15:23:37.641Z,3.90
2022-08-27T15:26:25.006Z,3.67
2022-08-27T15:29:12.721Z,3.65
2022-08-27T15:32:00.058Z,3.30
2022-08-27T15:34:47.353Z,3.80
2022-08-27T15:37:35.226Z,3.65
2022-08-27T15:40:24.036Z,4.82
2022-08-27T15:43:12.594Z,4.45
2022-08-27T15:45:59.868Z,4.53
2022-08-27T15:48:47.190Z,4.38
2022-08-27T15:51:35.053Z,4.20
2022-08-27T15:54:22.339Z,4.68
2022-08-27T15:57:10.024Z,4.35
2022-08-27T15:59:57.617Z,3.95
2022-08-27T16:02:46.191Z,4.10
2022-08-27T16:05:36.678Z,3.92
2022-08-27T16:08:24.264Z,3.53
2022-08-27T16:11:11.686Z,3.85
2022-08-27T16:13:58.994Z,3.55
2022-08-27T16:16:47.269Z,3.30
2022-08-27T16:19:41.225Z,3.38
2022-08-27T16:22:28.664Z,3.35
2022-08-27T16:25:18.608Z,2.85
2022-08-27T16:28:08.004Z,3.50
2022-08-27T16:30:56.691Z,2.88
2022-08-27T16:33:44.157Z,3.38
2022-08-27T16:36:31.519Z,3.33
2022-08-27T16:39:18.777Z,2.95
2022-08-27T16:42:10.072Z,3.28
2022-08-27T16:44:57.536Z,3.00
2022-08-27T16:48:03.216Z,3.17
2022-08-27T16:50:50.560Z,3.00
2022-08-27T16:53:41.219Z,2.88
2022-08-27T16:56:28.792Z,2.83
2022-08-27T16:59:16.124Z,2.90
2022-08-27T17:02:03.980Z,3.47
2022-08-27T17:05:07.369Z,2.72
2022-08-27T17:07:59.369Z,2.40
2022-08-27T17:10:51.322Z,2.58
2022-08-27T17:13:39.620Z,2.60
2022-08-27T17:16:32.540Z,2.65
2022-08-27T17:19:21.916Z,2.53
2022-08-27T17:22:09.415Z,2.05
2022-08-27T17:24:56.665Z,2.38
2022-08-27T17:27:43.944Z,2.47
2022-08-27T17:30:31.874Z,2.25
2022-08-27T17:33:36.045Z,2.60
2022-08-27T17:36:23.918Z,2.22
2022-08-27T17:39:14.560Z,2.17
2022-08-27T17:42:01.893Z,2.30
2022-08-27T17:44:49.285Z,2.15
2022-08-27T17:47:36.525Z,2.40
2022-08-27T17:50:23.838Z,1.80
2022-08-27T17:53:11.393Z,2.30
2022-08-27T17:55:58.744Z,2.25
2022-08-27T17:58:47.121Z,2.00
2022-08-27T18:01:39.953Z,2.33
2022-08-27T18:04:27.290Z,2.30
2022-08-27T18:07:15.338Z,2.83
2022-08-27T18:10:03.120Z,2.30
2022-08-27T18:12:52.409Z,1.92
2022-08-27T18:15:42.760Z,2.88
2022-08-27T18:18:30.479Z,2.50
2022-08-27T18:21:25.467Z,2.38
2022-08-27T18:24:14.005Z,2.15
2022-08-27T18:27:01.481Z,2.50
2022-08-27T18:29:49.880Z,2.33
2022-08-27T18:32:41.029Z,2.33
2022-08-27T18:35:30.849Z,2.25
2022-08-27T18:38:18.416Z,2.40
2022-08-27T18:41:06.421Z,2.53
2022-08-27T18:43:56.083Z,2.08
2022-08-27T18:46:43.441Z,2.15
2022-08-27T18:49:30.719Z,2.58
2022-08-27T18:52:21.745Z,2.53
2022-08-27T18:55:12.131Z,2.58
2022-08-27T18:57:59.519Z,2.85
2022-08-27T19:00:51.262Z,2.30
2022-08-27T19:03:43.931Z,2.40
2022-08-27T19:06:31.530Z,2.80
2022-08-27T19:09:19.088Z,2.50
2022-08-27T19:12:06.625Z,2.47
2022-08-27T19:14:53.933Z,2.20
2022-08-27T19:17:43.672Z,2.33
2022-08-27T19:20:31.409Z,2.00
2022-08-27T19:23:22.314Z,2.20
2022-08-27T19:26:24.534Z,2.53
2022-08-27T19:29:12.180Z,2.30
2022-08-27T19:31:59.537Z,2.92
2022-08-27T19:34:47.618Z,2.88
2022-08-27T19:37:39.673Z,2.40
2022-08-27T19:40:28.864Z,2.92
2022-08-27T19:43:16.136Z,2.60
2022-08-27T19:46:05.143Z,2.45
2022-08-27T19:48:55.443Z,2.55
2022-08-27T19:51:42.788Z,2.72
2022-08-27T19:54:33.745Z,2.55
2022-08-27T19:57:21.378Z,1.95
2022-08-27T20:00:11.359Z,2.60
2022-08-27T20:02:58.641Z,2.53
2022-08-27T20:05:49.670Z,3.00
2022-08-27T20:08:36.973Z,2.30
2022-08-27T20:11:24.508Z,2.33
2022-08-27T20:14:12.790Z,2.20
2022-08-27T20:17:00.173Z,2.55
2022-08-27T20:19:47.451Z,2.10
2022-08-27T20:25:24.937Z,2.67
2022-08-27T20:28:37.753Z,2.95
2022-08-27T20:31:19.863Z,2.80
2022-08-27T20:34:07.380Z,2.53
2022-08-27T20:36:54.748Z,2.67
2022-08-27T20:39:43.404Z,2.58
2022-08-27T20:42:30.722Z,2.90
2022-08-27T20:45:18.948Z,2.50
2022-08-27T20:48:06.381Z,2.53
2022-08-27T20:50:53.771Z,2.38
2022-08-27T20:53:41.030Z,2.60
2022-08-27T20:56:28.505Z,2.30
2022-08-27T20:59:34.564Z,2.40
2022-08-27T21:02:28.101Z,3.20
2022-08-27T21:05:17.516Z,3.03
2022-08-27T21:08:06.259Z,2.78
2022-08-27T21:10:56.751Z,3.45
2022-08-27T21:13:55.636Z,2.90
2022-08-27T21:16:43.652Z,2.78
2022-08-27T21:19:31.298Z,2.97
2022-08-27T21:22:19.146Z,2.88
2022-08-27T21:25:07.436Z,2.55
2022-08-27T21:27:56.777Z,2.72
2022-08-27T21:30:45.070Z,3.28
2022-08-27T21:33:34.062Z,2.30
2022-08-27T21:36:26.709Z,3.05
2022-08-27T21:39:14.067Z,2.30
2022-08-27T21:42:02.059Z,2.45
2022-08-27T21:44:49.485Z,2.72
2022-08-27T21:47:36.880Z,2.65
2022-08-27T21:50:25.629Z,2.43
2022-08-27T21:53:12.973Z,2.40
2022-08-27T21:56:00.241Z,2.75
2022-08-27T21:58:47.509Z,2.55
2022-08-27T22:01:34.801Z,2.42
2022-08-27T22:04:22.409Z,2.28
2022-08-27T22:07:10.965Z,2.72
2022-08-27T22:09:58.285Z,2.58
2022-08-27T22:12:45.590Z,2.70
2022-08-27T22:15:33.224Z,2.70
2022-08-27T22:18:23.049Z,2.75
2022-08-27T22:21:11.518Z,2.72
2022-08-27T22:23:59.371Z,3.50
2022-08-27T22:26:46.689Z,2.63
2022-08-27T22:29:34.097Z,2.67
2022-08-27T22:32:21.341Z,2.28
2022-08-27T22:35:10.041Z,2.15
2022-08-27T22:37:57.374Z,2.63
2022-08-27T22:40:45.721Z,2.92
2022-08-27T22:43:35.457Z,2.67
2022-08-27T22:46:22.743Z,2.80
2022-08-27T22:49:10.148Z,2.88
2022-08-27T22:51:57.420Z,2.88
2022-08-27T22:54:44.736Z,2.92
2022-08-27T22:57:32.160Z,2.88
2022-08-27T23:00:35.577Z,2.60
2022-08-27T23:03:23.035Z,2.78
2022-08-27T23:06:10.371Z,2.75
2022-08-27T23:08:57.804Z,2.83
2022-08-27T23:11:45.136Z,2.58
2022-08-27T23:14:33.286Z,2.92
2022-08-27T23:17:21.403Z,2.50
2022-08-27T23:20:10.778Z,3.00
2022-08-27T23:22:58.030Z,2.88
2022-08-27T23:26:03.693Z,2.80
2022-08-27T23:28:50.997Z,2.78
2022-08-27T23:31:38.800Z,2.30
2022-08-27T23:34:26.698Z,3.10
2022-08-27T23:37:13.989Z,2.88
2022-08-27T23:40:01.649Z,3.03
2022-08-27T23:42:49.503Z,2.55
2022-08-27T23:45:40.896Z,2.70
2022-08-27T23:48:28.353Z,2.78
2022-08-27T23:51:15.664Z,2.38
2022-08-27T23:54:02.990Z,2.33
2022-08-27T23:56:50.288Z,2.65
2022-08-27T23:59:37.792Z,2.65
